Pocatello, ID (83201)

1:57 PM MST on December 10, 2016 (GMT -0700)
Bonneville Park | | Change Station

Elev 4606 ft 42.87 °N, 112.43 °W | Updated 32 seconds ago

Mostly Cloudy
Mostly Cloudy
40.8 °F
Feels Like 41 °F
N
2.7
Wind Variable Wind from West

Today
High -- | Low -- °F
--% Chance of Precip.
Yesterday
High -- | Low -- °F
Precip. -- in
Pressure 29.83 in
Visibility 6.0 miles
Clouds Mostly Cloudy 2100 ft
Mostly Cloudy 3500 ft
Overcast 5000 ft
Windchill 41 °F
Dew Point 36 °F
Humidity 83%
Rainfall 0.20 in
Snow Depth Not available.
7:50 AM 4:55 PM
Waxing Gibbous, 86% visible
METAR KPIH 101953Z 20015KT 6SM -RA BR BKN021 BKN035 OVC050 04/02 A2982 RMK AO2 SLP102 P0003 T00390017
Pressure 29.83 in
Visibility 6.0 miles
Clouds Mostly Cloudy 2100 ft
Mostly Cloudy 3500 ft
Overcast 5000 ft
Windchill 41 °F
Dew Point 36 °F
Humidity 83%
Rainfall 0.20 in
Snow Depth Not available.
7:50 AM 4:55 PM
Waxing Gibbous, 86% visible
METAR KPIH 101953Z 20015KT 6SM -RA BR BKN021 BKN035 OVC050 04/02 A2982 RMK AO2 SLP102 P0003 T00390017

10-Day Weather Forecast

Almanac

Astronomy

Dec. 10, 2016 Rise Set
Actual Time
Civil Twilight
Nautical Twilight
Astronomical Twilight
Moon
Length of Visible Light
Length of Day
Tomorrow will be .
, % of the Moon is Illuminated

Today's Extremes

State Highs State Lows

Community

WunderPhotos

Upload Photos

1,956,659 photos uploaded!

WunderBlog® & News

Nearby

Air Quality

  Air Quality AQ Index Pollutant
Not available.

Snow Depth

Station Depth Elevation

Earthquake Activity

City Distance Mag. Time & Date
Minimum magnitude displayed is 2.5.

Coastal Water Temperatures

Place Temperature

Stations

Nearby Weather Stations

Station Location Temp. Windchill Dew Point Humidity Wind Precip. Elev Updated Type
                   

Watches & Warnings

There are currently no watches in effect.